Warning: Javascript must be enabled to use all the features on this page!


Page Loading - Please Wait...

* We've detected you're using a mobile device. Find our Next Generation Station Page here.
Click to hideNews Bulletins

Peak Streamflow for the Nation

USGS 05483600 Middle Raccoon River at Panora, IA

Guthrie County, Iowa
Hydrologic Unit Code 07100007
Latitude  41°41'14", Longitude  94°22'15" NAD27
Drainage area 440  square miles
Gage datum 991.20 feet above NGVD29
Output formats
Table
Graph
Tab-separated file
peakfq (watstore) format
Reselect output format
Water
Year
Date Gage
Height
(feet)
Stream-
flow
(cfs)
1953 1953-06-10 14.30 14,0002,7
1958 1958-07-02 11.87 9,150
1959 1959-06-01 7.50 2,480
1960 1960-03-31 9.68 5,320
1961 1961-06-16 7.82 2,730
1962 1962-03-26 9.29 4,620
1963 1963-08-07 9.05 4,200
1964 1964-06-22 10.47 6,300
1965 1965-03-17 10.872 6,890
1966 1966-06-29 8.79 3,800
1967 1967-06-10 9.95 5,600
1968 1968-06-26 6.18 1,150
1969 1969-03-24 10.25 5,950
1970 1970-05-15 7.83 2,780
1971 1971-02-19 12.981 8,9002,6
1972 1972-08-02 9.64 5,1106
1973 1973-07-03 13.56 12,0006
1974 1974-05-19 14.80 14,0006
1975 1975-04-29 8.36 3,4206
1976 1976-05-23 11.05 7,3006
1977 1977-08-26 7.75 2,6906
1978 1978-09-13 9.18 4,4706
1979 1979-03-19 12.95 10,7006
1980 1980-06-04 8.30 3,3506
1981 1981-08-14 7.46 2,3806
1982 1982-02-23 9.13 4,3306
1983 1983-07-02 9.81 5,3606
1984 1984-04-30 11.18 7,5306
1985 1984-12-29 7.43 2,3506
1986 1986-06-30 15.50 15,3006
1987 1986-10-12 8.42 3,3206
1988 1988-06-08 7.40 2,3006
1989 1989-09-08 8.40 3,3006
1990 1990-06-18 12.77 9,0006
1991 1991-06-14 8.83 3,7506
1992 1992-09-15 7.21 2,1006
1993 1993-07-09 20.04 22,4006
1994 1994-02-18 7.281 1,3002,6
1995 1995-08-06 10.49 5,9206
1996 1996-07-18 9.42 4,5806
1997 1997-02-19 9.68 4,8906
1998 1998-06-14 13.51 11,4006
1999 1999-06-23 9.28 4,4106
2000 2000-07-05 7.59 2,5006
2001 2001-06-15 8.14 3,1006
2002 2002-08-23 8.97 4,0506
2003 2003-07-10 8.40 3,7006
2004 2004-05-23 13.25 9,9706
2005 2005-05-12 8.68 3,7106
2006 2006-09-17 8.39 3,3806
2007 2007-04-25 11.52 7,9906
2008 2008-07-28 14.69 14,0006
2009 2009-04-26 10.74 6,2606
2010 2010-06-27 10.17 6,9206
2011 2011-02-18 7.68 2,6206
2012 2012-04-14 6.62 1,5806
2013 2013-06-16 11.62 7,4906
2014 2014-09-01 9.54 4,7206
2015 2015-06-25 12.19 8,3306
2016 2015-12-15 9.93 5,2006
2017 2017-05-21 7.91 2,8606
2018 2018-06-20 9.352 4,7606
2019 2019-03-14 11.77 7,7306
?
  Peak Gage-Height Qualification Codes.
?
  Peak Streamflow Qualification Codes.